Time,TemperatureF,DewpointF,PressureIn,WindDirection,WindDirectionDegrees,WindSpeedMPH,WindSpeedGustMPH,Humidity,HourlyPrecipIn,Conditions,Clouds,dailyrainin,SolarRadiationWatts/m^2,SoftwareType,DateUTC
2013-10-21 00:00:00,44.7,37.2,-100.00,SSW,192,2.2,4.0,74,0.00,,,-99.99,1.0,HOBO +U30 +Weather +,2013-10-21 06:00:00,
2013-10-21 00:05:00,44.7,37.2,-100.00,South,188,0.7,2.9,74,0.00,,,-99.99,1.0,HOBO +U30 +Weather +,2013-10-21 06:05:00,
2013-10-21 00:10:00,44.3,37.2,-100.00,South,190,2.2,4.0,75,0.00,,,-99.99,1.0,HOBO +U30 +Weather +,2013-10-21 06:10:00,
2013-10-21 00:15:00,44.3,37.2,-100.00,South,191,2.2,4.0,75,0.00,,,-99.99,1.0,HOBO +U30 +Weather +,2013-10-21 06:15:00,
2013-10-21 00:20:00,44.2,37.4,-100.00,SSE,167,2.9,4.0,77,0.00,,,-99.99,1.0,HOBO +U30 +Weather +,2013-10-21 06:20:00,
2013-10-21 00:25:00,44.0,37.7,-100.00,SSE,164,4.0,5.6,78,0.00,,,-99.99,1.0,HOBO +U30 +Weather +,2013-10-21 06:25:00,
2013-10-21 00:30:00,44.3,38.1,-100.00,SSE,160,2.2,5.1,78,0.00,,,-99.99,1.0,HOBO +U30 +Weather +,2013-10-21 06:30:00,
2013-10-21 00:35:00,44.3,38.0,-100.00,SSE,163,2.9,4.0,78,0.00,,,-99.99,1.0,HOBO +U30 +Weather +,2013-10-21 06:35:00,
2013-10-21 00:40:00,44.3,38.1,-100.00,South,173,3.4,4.5,78,0.00,,,-99.99,1.0,HOBO +U30 +Weather +,2013-10-21 06:40:00,
2013-10-21 00:54:00,44.3,38.1,-100.00,SSE,167,2.9,4.5,78,0.00,,,-99.99,1.0,HOBO +U30 +Weather +,2013-10-21 06:54:00,
2013-10-21 00:55:00,44.2,38.5,-100.00,South,174,3.4,5.1,80,0.00,,,-99.99,1.0,HOBO +U30 +Weather +,2013-10-21 06:55:00,
2013-10-21 01:00:00,44.3,38.4,-100.00,South,183,2.9,4.5,79,0.00,,,-99.99,1.0,HOBO +U30 +Weather +,2013-10-21 07:00:00,
2013-10-21 01:05:00,44.9,38.7,-100.00,South,180,1.1,4.0,78,0.00,,,-99.99,1.0,HOBO +U30 +Weather +,2013-10-21 07:05:00,
2013-10-21 01:10:00,44.9,38.2,-100.00,SSW,195,3.4,5.1,77,0.00,,,-99.99,1.0,HOBO +U30 +Weather +,2013-10-21 07:10:00,
2013-10-21 01:15:00,44.6,38.4,-100.00,South,180,2.9,4.5,78,0.00,,,-99.99,1.0,HOBO +U30 +Weather +,2013-10-21 07:15:00,
2013-10-21 01:20:00,44.4,38.4,-100.00,South,180,3.4,5.1,79,0.00,,,-99.99,1.0,HOBO +U30 +Weather +,2013-10-21 07:20:00,
2013-10-21 01:25:00,44.6,38.5,-100.00,South,187,2.2,4.0,79,0.00,,,-99.99,1.0,HOBO +U30 +Weather +,2013-10-21 07:25:00,
2013-10-21 01:30:00,44.5,38.4,-100.00,South,188,2.2,3.4,79,0.00,,,-99.99,1.0,HOBO +U30 +Weather +,2013-10-21 07:30:00,
2013-10-21 01:35:00,45.1,38.8,-100.00,South,188,2.2,4.0,78,0.00,,,-99.99,1.0,HOBO +U30 +Weather +,2013-10-21 07:35:00,
2013-10-21 01:40:00,44.9,38.4,-100.00,South,187,2.2,4.5,77,0.00,,,-99.99,1.0,HOBO +U30 +Weather +,2013-10-21 07:40:00,
2013-10-21 01:45:00,44.7,38.4,-100.00,South,178,2.2,3.4,78,0.00,,,-99.99,1.0,HOBO +U30 +Weather +,2013-10-21 07:45:00,
2013-10-21 01:50:00,45.5,38.5,-100.00,SSW,201,2.2,5.1,76,0.00,,,-99.99,1.0,HOBO +U30 +Weather +,2013-10-21 07:50:00,
2013-10-21 01:55:00,45.8,38.2,-100.00,SSW,212,1.8,4.5,74,0.00,,,-99.99,1.0,HOBO +U30 +Weather +,2013-10-21 07:55:00,
2013-10-21 02:00:00,46.2,38.1,-100.00,SW,233,2.2,4.5,73,0.00,,,-99.99,1.0,HOBO +U30 +Weather +,2013-10-21 08:00:00,
2013-10-21 02:05:00,46.6,37.5,-100.00,WSW,244,4.0,6.3,70,0.00,,,-99.99,1.0,HOBO +U30 +Weather +,2013-10-21 08:05:00,
2013-10-21 02:10:00,46.7,37.3,-100.00,WSW,250,5.1,7.8,69,0.00,,,-99.99,1.0,HOBO +U30 +Weather +,2013-10-21 08:10:00,
2013-10-21 02:15:00,46.7,37.3,-100.00,WSW,241,5.6,8.5,69,0.00,,,-99.99,1.0,HOBO +U30 +Weather +,2013-10-21 08:15:00,
2013-10-21 02:20:00,46.7,37.3,-100.00,WSW,239,4.5,7.8,69,0.00,,,-99.99,1.0,HOBO +U30 +Weather +,2013-10-21 08:20:00,
2013-10-21 02:25:00,46.6,37.3,-100.00,WSW,239,3.4,6.3,69,0.00,,,-99.99,1.0,HOBO +U30 +Weather +,2013-10-21 08:25:00,
2013-10-21 02:30:00,46.5,37.3,-100.00,WSW,239,3.4,6.3,70,0.00,,,-99.99,1.0,HOBO +U30 +Weather +,2013-10-21 08:30:00,
2013-10-21 02:35:00,46.5,37.4,-100.00,WSW,239,2.2,4.5,70,0.00,,,-99.99,1.0,HOBO +U30 +Weather +,2013-10-21 08:35:00,
2013-10-21 02:40:00,46.5,37.4,-100.00,SW,230,2.9,5.1,70,0.00,,,-99.99,1.0,HOBO +U30 +Weather +,2013-10-21 08:40:00,
2013-10-21 02:52:00,46.4,37.4,-100.00,SW,236,2.9,5.6,70,0.00,,,-99.99,1.0,HOBO +U30 +Weather +,2013-10-21 08:52:00,
2013-10-21 02:55:00,46.4,37.4,-100.00,SW,233,3.4,5.6,70,0.00,,,-99.99,1.0,HOBO +U30 +Weather +,2013-10-21 08:55:00,
2013-10-21 03:00:00,46.3,37.4,-100.00,WSW,244,3.4,6.3,70,0.00,,,-99.99,1.0,HOBO +U30 +Weather +,2013-10-21 09:00:00,
2013-10-21 03:05:00,46.3,37.3,-100.00,WSW,248,4.0,5.6,70,0.00,,,-99.99,1.0,HOBO +U30 +Weather +,2013-10-21 09:05:00,
2013-10-21 03:10:00,46.4,37.2,-100.00,WSW,241,2.9,5.6,70,0.00,,,-99.99,1.0,HOBO +U30 +Weather +,2013-10-21 09:10:00,
2013-10-21 03:15:00,46.4,37.1,-100.00,WSW,247,2.9,5.1,69,0.00,,,-99.99,1.0,HOBO +U30 +Weather +,2013-10-21 09:15:00,
2013-10-21 03:20:00,46.4,37.2,-100.00,WSW,237,2.2,4.5,70,0.00,,,-99.99,1.0,HOBO +U30 +Weather +,2013-10-21 09:20:00,
2013-10-21 03:25:00,46.7,37.3,-100.00,SW,222,1.8,5.1,69,0.00,,,-99.99,1.0,HOBO +U30 +Weather +,2013-10-21 09:25:00,
2013-10-21 03:30:00,46.7,37.2,-100.00,SSW,202,2.2,5.1,69,0.00,,,-99.99,1.0,HOBO +U30 +Weather +,2013-10-21 09:30:00,
2013-10-21 03:35:00,46.4,37.2,-100.00,SSW,211,4.0,6.7,69,0.00,,,-99.99,1.0,HOBO +U30 +Weather +,2013-10-21 09:35:00,
2013-10-21 03:40:00,46.4,37.2,-100.00,SSW,206,4.5,7.4,70,0.00,,,-99.99,1.0,HOBO +U30 +Weather +,2013-10-21 09:40:00,
2013-10-21 03:45:00,46.5,37.5,-100.00,SSW,204,2.9,6.3,70,0.00,,,-99.99,1.0,HOBO +U30 +Weather +,2013-10-21 09:45:00,
2013-10-21 03:50:00,46.0,37.3,-100.00,SSW,192,3.4,5.6,71,0.00,,,-99.99,1.0,HOBO +U30 +Weather +,2013-10-21 09:50:00,
2013-10-21 03:55:00,45.9,37.5,-100.00,SSW,197,3.4,5.6,72,0.00,,,-99.99,1.0,HOBO +U30 +Weather +,2013-10-21 09:55:00,
2013-10-21 04:00:00,45.8,37.6,-100.00,SSW,206,2.9,5.6,72,0.00,,,-99.99,1.0,HOBO +U30 +Weather +,2013-10-21 10:00:00,
2013-10-21 04:05:00,45.8,37.5,-100.00,SSW,204,2.2,5.6,72,0.00,,,-99.99,1.0,HOBO +U30 +Weather +,2013-10-21 10:05:00,
2013-10-21 04:10:00,45.6,37.5,-100.00,SSW,202,2.9,6.3,73,0.00,,,-99.99,1.0,HOBO +U30 +Weather +,2013-10-21 10:10:00,
2013-10-21 04:15:00,45.4,37.5,-100.00,SSW,202,3.4,5.6,73,0.00,,,-99.99,1.0,HOBO +U30 +Weather +,2013-10-21 10:15:00,
2013-10-21 04:20:00,45.6,37.4,-100.00,SSW,212,2.9,5.6,72,0.00,,,-99.99,1.0,HOBO +U30 +Weather +,2013-10-21 10:20:00,
2013-10-21 04:25:00,45.6,37.3,-100.00,SSW,211,2.9,5.1,72,0.00,,,-99.99,1.0,HOBO +U30 +Weather +,2013-10-21 10:25:00,
2013-10-21 04:30:00,45.8,37.1,-100.00,WSW,237,3.4,5.6,71,0.00,,,-99.99,1.0,HOBO +U30 +Weather +,2013-10-21 10:30:00,
2013-10-21 04:35:00,45.6,37.0,-100.00,SW,226,3.4,6.3,71,0.00,,,-99.99,1.0,HOBO +U30 +Weather +,2013-10-21 10:35:00,
2013-10-21 04:40:00,45.4,36.9,-100.00,SSW,209,4.0,6.3,71,0.00,,,-99.99,1.0,HOBO +U30 +Weather +,2013-10-21 10:40:00,
2013-10-21 04:50:00,45.3,36.8,-100.00,SW,215,2.9,5.6,72,0.00,,,-99.99,1.0,HOBO +U30 +Weather +,2013-10-21 10:50:00,
2013-10-21 04:55:00,45.3,36.6,-100.00,SW,216,2.2,5.1,71,0.00,,,-99.99,1.0,HOBO +U30 +Weather +,2013-10-21 10:55:00,
2013-10-21 05:00:00,45.3,36.6,-100.00,SSW,212,2.9,5.6,71,0.00,,,-99.99,1.0,HOBO +U30 +Weather +,2013-10-21 11:00:00,
2013-10-21 05:05:00,45.3,36.6,-100.00,SW,219,2.2,4.5,71,0.00,,,-99.99,1.0,HOBO +U30 +Weather +,2013-10-21 11:05:00,
2013-10-21 05:10:00,45.4,36.4,-100.00,SSW,213,2.2,4.0,70,0.00,,,-99.99,1.0,HOBO +U30 +Weather +,2013-10-21 11:10:00,
2013-10-21 05:15:00,45.4,36.3,-100.00,SSW,213,2.9,6.7,70,0.00,,,-99.99,1.0,HOBO +U30 +Weather +,2013-10-21 11:15:00,
2013-10-21 05:20:00,45.3,36.3,-100.00,SW,229,3.4,7.4,70,0.00,,,-99.99,1.0,HOBO +U30 +Weather +,2013-10-21 11:20:00,
2013-10-21 05:25:00,45.1,36.3,-100.00,WSW,247,2.9,5.1,71,0.00,,,-99.99,1.0,HOBO +U30 +Weather +,2013-10-21 11:25:00,
2013-10-21 05:30:00,44.5,36.2,-100.00,WSW,254,2.9,6.3,72,0.00,,,-99.99,1.0,HOBO +U30 +Weather +,2013-10-21 11:30:00,
2013-10-21 05:35:00,44.6,36.5,-100.00,WSW,241,2.2,4.5,72,0.00,,,-99.99,1.0,HOBO +U30 +Weather +,2013-10-21 11:35:00,
2013-10-21 05:40:00,44.8,36.6,-100.00,WSW,237,1.1,4.0,72,0.00,,,-99.99,1.0,HOBO +U30 +Weather +,2013-10-21 11:40:00,
2013-10-21 05:45:00,44.3,36.6,-100.00,West,261,1.8,4.0,73,0.00,,,-99.99,1.0,HOBO +U30 +Weather +,2013-10-21 11:45:00,
2013-10-21 05:50:00,44.5,36.4,-100.00,WSW,240,2.2,5.1,73,0.00,,,-99.99,1.0,HOBO +U30 +Weather +,2013-10-21 11:50:00,
2013-10-21 05:55:00,44.5,36.5,-100.00,WSW,247,0.7,3.4,73,0.00,,,-99.99,1.0,HOBO +U30 +Weather +,2013-10-21 11:55:00,
2013-10-21 06:00:00,44.6,36.6,-100.00,West,260,2.2,4.5,73,0.00,,,-99.99,1.0,HOBO +U30 +Weather +,2013-10-21 12:00:00,
2013-10-21 06:05:00,44.7,36.5,-100.00,WSW,248,1.1,3.4,72,0.00,,,-99.99,1.0,HOBO +U30 +Weather +,2013-10-21 12:05:00,
2013-10-21 06:10:00,44.8,36.4,-100.00,WSW,257,1.1,3.4,72,0.00,,,-99.99,1.0,HOBO +U30 +Weather +,2013-10-21 12:10:00,
2013-10-21 06:15:00,44.9,36.4,-100.00,WSW,237,1.8,3.4,71,0.00,,,-99.99,1.0,HOBO +U30 +Weather +,2013-10-21 12:15:00,
2013-10-21 06:20:00,45.0,36.5,-100.00,WSW,241,0.7,2.9,72,0.00,,,-99.99,1.0,HOBO +U30 +Weather +,2013-10-21 12:20:00,
2013-10-21 06:25:00,45.6,36.6,-100.00,SW,227,2.2,7.8,70,0.00,,,-99.99,1.0,HOBO +U30 +Weather +,2013-10-21 12:25:00,
2013-10-21 06:30:00,45.8,36.4,-100.00,SSW,206,4.0,8.5,69,0.00,,,-99.99,1.0,HOBO +U30 +Weather +,2013-10-21 12:30:00,
2013-10-21 06:35:00,45.8,36.2,-100.00,SSW,205,6.3,8.5,68,0.00,,,-99.99,1.0,HOBO +U30 +Weather +,2013-10-21 12:35:00,
2013-10-21 06:47:00,45.8,36.0,-100.00,SSW,202,5.6,9.6,68,0.00,,,-99.99,1.0,HOBO +U30 +Weather +,2013-10-21 12:47:00,
2013-10-21 06:50:00,46.1,35.9,-100.00,SSW,209,6.7,11.9,67,0.00,,,-99.99,1.0,HOBO +U30 +Weather +,2013-10-21 12:50:00,
2013-10-21 06:55:00,46.2,35.7,-100.00,SSW,211,7.4,11.9,66,0.00,,,-99.99,1.0,HOBO +U30 +Weather +,2013-10-21 12:55:00,
2013-10-21 07:00:00,46.2,35.7,-100.00,SSW,208,7.8,10.7,66,0.00,,,-99.99,1.0,HOBO +U30 +Weather +,2013-10-21 13:00:00,
2013-10-21 07:05:00,46.3,35.6,-100.00,SSW,208,7.4,10.7,66,0.00,,,-99.99,1.0,HOBO +U30 +Weather +,2013-10-21 13:05:00,
2013-10-21 07:10:00,46.4,35.6,-100.00,SSW,208,6.7,9.6,65,0.00,,,-99.99,1.0,HOBO +U30 +Weather +,2013-10-21 13:10:00,
2013-10-21 07:15:00,46.5,35.6,-100.00,SSW,206,7.4,10.1,65,0.00,,,-99.99,1.0,HOBO +U30 +Weather +,2013-10-21 13:15:00,
2013-10-21 07:20:00,46.6,35.5,-100.00,SSW,206,6.7,9.6,64,0.00,,,-99.99,1.0,HOBO +U30 +Weather +,2013-10-21 13:20:00,
2013-10-21 07:25:00,47.0,35.4,-100.00,SSW,209,5.6,8.9,63,0.00,,,-99.99,1.0,HOBO +U30 +Weather +,2013-10-21 13:25:00,
2013-10-21 07:30:00,47.2,35.4,-100.00,SSW,211,5.1,9.6,63,0.00,,,-99.99,1.0,HOBO +U30 +Weather +,2013-10-21 13:30:00,
2013-10-21 07:35:00,47.6,35.2,-100.00,SW,219,6.3,10.7,61,0.00,,,-99.99,1.0,HOBO +U30 +Weather +,2013-10-21 13:35:00,
2013-10-21 07:45:00,48.2,35.3,-100.00,SW,215,6.3,10.1,60,0.00,,,-99.99,1.0,HOBO +U30 +Weather +,2013-10-21 13:45:00,
2013-10-21 07:46:00,48.1,35.2,-100.00,SW,218,5.6,10.1,60,0.00,,,-99.99,1.0,HOBO +U30 +Weather +,2013-10-21 13:46:00,
2013-10-21 07:50:00,48.5,35.2,-100.00,SW,225,6.3,11.2,60,0.00,,,-99.99,2.0,HOBO +U30 +Weather +,2013-10-21 13:50:00,
2013-10-21 07:55:00,48.5,35.5,-100.00,SW,215,6.3,10.7,60,0.00,,,-99.99,3.0,HOBO +U30 +Weather +,2013-10-21 13:55:00,
2013-10-21 08:00:00,47.9,35.7,-100.00,SSW,212,7.4,10.7,62,0.00,,,-99.99,8.0,HOBO +U30 +Weather +,2013-10-21 14:00:00,
2013-10-21 08:05:00,47.5,35.9,-100.00,SSW,206,7.4,10.7,63,0.00,,,-99.99,18.0,HOBO +U30 +Weather +,2013-10-21 14:05:00,
2013-10-21 08:10:00,47.4,35.9,-100.00,SSW,211,8.5,14.5,64,0.00,,,-99.99,24.0,HOBO +U30 +Weather +,2013-10-21 14:10:00,
2013-10-21 08:15:00,47.6,35.9,-100.00,SSW,212,8.9,14.1,63,0.00,,,-99.99,24.0,HOBO +U30 +Weather +,2013-10-21 14:15:00,
2013-10-21 08:20:00,47.7,35.9,-100.00,SSW,212,7.8,13.0,63,0.00,,,-99.99,29.0,HOBO +U30 +Weather +,2013-10-21 14:20:00,
2013-10-21 08:25:00,47.8,35.8,-100.00,SW,215,8.5,14.1,62,0.00,,,-99.99,34.0,HOBO +U30 +Weather +,2013-10-21 14:25:00,
2013-10-21 08:30:00,47.9,35.7,-100.00,SW,220,7.8,12.3,62,0.00,,,-99.99,34.0,HOBO +U30 +Weather +,2013-10-21 14:30:00,
2013-10-21 08:44:00,48.1,35.8,-100.00,SW,218,7.4,12.3,62,0.00,,,-99.99,34.0,HOBO +U30 +Weather +,2013-10-21 14:44:00,
2013-10-21 08:45:00,48.2,35.7,-100.00,SW,219,6.3,9.6,61,0.00,,,-99.99,62.0,HOBO +U30 +Weather +,2013-10-21 14:45:00,
2013-10-21 08:50:00,48.2,35.9,-100.00,SW,222,5.6,7.8,62,0.00,,,-99.99,78.0,HOBO +U30 +Weather +,2013-10-21 14:50:00,
2013-10-21 08:55:00,48.1,36.0,-100.00,SW,225,7.4,13.0,62,0.00,,,-99.99,83.0,HOBO +U30 +Weather +,2013-10-21 14:55:00,
2013-10-21 09:00:00,48.1,36.0,-100.00,SW,219,6.3,10.7,62,0.00,,,-99.99,98.0,HOBO +U30 +Weather +,2013-10-21 15:00:00,
2013-10-21 09:05:00,48.2,36.0,-100.00,SW,219,7.4,11.9,62,0.00,,,-99.99,81.0,HOBO +U30 +Weather +,2013-10-21 15:05:00,
2013-10-21 09:10:00,48.3,36.1,-100.00,SW,215,7.8,13.0,62,0.00,,,-99.99,66.0,HOBO +U30 +Weather +,2013-10-21 15:10:00,
2013-10-21 09:15:00,48.6,36.2,-100.00,SW,223,5.6,10.7,62,0.00,,,-99.99,61.0,HOBO +U30 +Weather +,2013-10-21 15:15:00,
2013-10-21 09:20:00,48.8,36.3,-100.00,SW,236,5.1,9.6,61,0.00,,,-99.99,66.0,HOBO +U30 +Weather +,2013-10-21 15:20:00,
2013-10-21 09:25:00,48.9,36.2,-100.00,WSW,244,5.1,7.4,61,0.00,,,-99.99,67.0,HOBO +U30 +Weather +,2013-10-21 15:25:00,
2013-10-21 09:30:00,49.2,36.6,-100.00,WSW,237,3.4,8.5,61,0.00,,,-99.99,62.0,HOBO +U30 +Weather +,2013-10-21 15:30:00,
2013-10-21 09:43:00,48.9,36.7,-100.00,West,268,2.9,5.6,62,0.00,,,-99.99,59.0,HOBO +U30 +Weather +,2013-10-21 15:43:00,
2013-10-21 09:45:00,49.4,36.6,-100.00,SW,236,2.9,6.3,61,0.00,,,-99.99,73.0,HOBO +U30 +Weather +,2013-10-21 15:45:00,
2013-10-21 09:50:00,49.2,36.6,-100.00,WSW,243,5.1,8.5,61,0.00,,,-99.99,66.0,HOBO +U30 +Weather +,2013-10-21 15:50:00,
2013-10-21 09:55:00,49.2,36.7,-100.00,WSW,253,4.0,7.4,61,0.00,,,-99.99,67.0,HOBO +U30 +Weather +,2013-10-21 15:55:00,
2013-10-21 10:00:00,49.3,36.7,-100.00,SW,233,2.9,6.3,61,0.00,,,-99.99,73.0,HOBO +U30 +Weather +,2013-10-21 16:00:00,
2013-10-21 10:05:00,49.2,36.8,-100.00,WSW,239,3.4,7.8,62,0.00,,,-99.99,73.0,HOBO +U30 +Weather +,2013-10-21 16:05:00,
2013-10-21 10:10:00,49.2,36.8,-100.00,SW,222,2.9,5.6,62,0.00,,,-99.99,71.0,HOBO +U30 +Weather +,2013-10-21 16:10:00,
2013-10-21 10:15:00,49.1,36.7,-100.00,SW,223,4.0,9.6,62,0.00,,,-99.99,61.0,HOBO +U30 +Weather +,2013-10-21 16:15:00,
2013-10-21 10:20:00,49.3,36.8,-100.00,SW,225,4.0,7.4,61,0.00,,,-99.99,53.0,HOBO +U30 +Weather +,2013-10-21 16:20:00,
2013-10-21 10:25:00,49.4,36.9,-100.00,SSW,206,4.0,6.7,61,0.00,,,-99.99,51.0,HOBO +U30 +Weather +,2013-10-21 16:25:00,
2013-10-21 10:30:00,49.3,36.9,-100.00,SSW,208,5.6,8.5,62,0.00,,,-99.99,53.0,HOBO +U30 +Weather +,2013-10-21 16:30:00,
2013-10-21 10:41:00,49.5,37.0,-100.00,SSW,208,5.6,9.6,61,0.00,,,-99.99,56.0,HOBO +U30 +Weather +,2013-10-21 16:41:00,
2013-10-21 10:45:00,49.8,37.1,-100.00,SSW,209,4.5,7.4,61,0.00,,,-99.99,59.0,HOBO +U30 +Weather +,2013-10-21 16:45:00,
2013-10-21 10:50:00,49.9,37.1,-100.00,SSW,209,4.5,8.9,61,0.00,,,-99.99,56.0,HOBO +U30 +Weather +,2013-10-21 16:50:00,
2013-10-21 10:55:00,49.6,37.1,-100.00,SSW,209,5.6,9.6,62,0.00,,,-99.99,62.0,HOBO +U30 +Weather +,2013-10-21 16:55:00,
2013-10-21 11:00:00,49.6,37.3,-100.00,SSW,205,5.1,8.5,62,0.00,,,-99.99,68.0,HOBO +U30 +Weather +,2013-10-21 17:00:00,
2013-10-21 11:05:00,49.9,37.6,-100.00,SSW,208,5.6,8.9,62,0.00,,,-99.99,73.0,HOBO +U30 +Weather +,2013-10-21 17:05:00,
2013-10-21 11:10:00,50.0,37.6,-100.00,SSW,205,5.1,7.4,62,0.00,,,-99.99,77.0,HOBO +U30 +Weather +,2013-10-21 17:10:00,
2013-10-21 11:15:00,50.0,37.7,-100.00,SSW,206,4.5,7.4,62,0.00,,,-99.99,93.0,HOBO +U30 +Weather +,2013-10-21 17:15:00,
2013-10-21 11:20:00,50.5,38.1,-100.00,SSW,201,4.0,6.7,62,0.00,,,-99.99,94.0,HOBO +U30 +Weather +,2013-10-21 17:20:00,
2013-10-21 11:25:00,50.6,38.4,-100.00,SSW,204,3.4,6.3,62,0.00,,,-99.99,88.0,HOBO +U30 +Weather +,2013-10-21 17:25:00,
2013-10-21 11:30:00,50.8,38.3,-100.00,SSW,206,2.9,5.1,62,0.00,,,-99.99,89.0,HOBO +U30 +Weather +,2013-10-21 17:30:00,
2013-10-21 11:40:00,51.1,38.6,-100.00,SSW,205,2.9,5.6,62,0.00,,,-99.99,92.0,HOBO +U30 +Weather +,2013-10-21 17:40:00,
2013-10-21 11:45:00,52.2,38.6,-100.00,SW,215,4.0,6.3,59,0.00,,,-99.99,72.0,HOBO +U30 +Weather +,2013-10-21 17:45:00,
2013-10-21 11:50:00,52.7,38.7,-100.00,SW,219,4.0,7.4,58,0.00,,,-99.99,79.0,HOBO +U30 +Weather +,2013-10-21 17:50:00,
2013-10-21 11:55:00,53.4,38.7,-100.00,SSW,211,5.1,8.9,57,0.00,,,-99.99,94.0,HOBO +U30 +Weather +,2013-10-21 17:55:00,
2013-10-21 12:00:00,53.6,38.9,-100.00,SSW,202,5.1,8.9,57,0.00,,,-99.99,103.0,HOBO +U30 +Weather +,2013-10-21 18:00:00,
2013-10-21 12:05:00,53.6,38.8,-100.00,SSW,199,5.6,8.9,57,0.00,,,-99.99,113.0,HOBO +U30 +Weather +,2013-10-21 18:05:00,
2013-10-21 12:10:00,53.9,38.8,-100.00,SSW,202,5.6,10.7,56,0.00,,,-99.99,133.0,HOBO +U30 +Weather +,2013-10-21 18:10:00,
2013-10-21 12:15:00,54.3,38.9,-100.00,SSW,202,5.1,9.6,55,0.00,,,-99.99,124.0,HOBO +U30 +Weather +,2013-10-21 18:15:00,
2013-10-21 12:20:00,54.6,38.8,-100.00,SSW,211,5.1,8.9,55,0.00,,,-99.99,126.0,HOBO +U30 +Weather +,2013-10-21 18:20:00,
2013-10-21 12:25:00,54.9,38.7,-100.00,SSW,204,5.1,7.8,54,0.00,,,-99.99,107.0,HOBO +U30 +Weather +,2013-10-21 18:25:00,
2013-10-21 12:38:00,55.3,38.6,-100.00,SSW,205,4.0,7.4,53,0.00,,,-99.99,94.0,HOBO +U30 +Weather +,2013-10-21 18:38:00,
2013-10-21 12:40:00,57.0,37.3,-100.00,SW,229,5.1,10.1,47,0.00,,,-99.99,97.0,HOBO +U30 +Weather +,2013-10-21 18:40:00,
2013-10-21 12:45:00,57.1,36.8,-100.00,SW,232,5.6,9.6,46,0.00,,,-99.99,102.0,HOBO +U30 +Weather +,2013-10-21 18:45:00,
2013-10-21 12:50:00,57.3,37.0,-100.00,SW,230,6.7,13.4,46,0.00,,,-99.99,102.0,HOBO +U30 +Weather +,2013-10-21 18:50:00,
2013-10-21 12:55:00,56.6,38.0,-100.00,SW,220,4.5,8.5,49,0.00,,,-99.99,114.0,HOBO +U30 +Weather +,2013-10-21 18:55:00,
2013-10-21 13:00:00,56.7,38.0,-100.00,SW,218,4.5,9.6,49,0.00,,,-99.99,138.0,HOBO +U30 +Weather +,2013-10-21 19:00:00,
2013-10-21 13:05:00,56.4,37.9,-100.00,SW,220,7.4,11.9,49,0.00,,,-99.99,177.0,HOBO +U30 +Weather +,2013-10-21 19:05:00,
2013-10-21 13:10:00,56.7,38.1,-100.00,SW,225,6.3,12.3,49,0.00,,,-99.99,179.0,HOBO +U30 +Weather +,2013-10-21 19:10:00,
2013-10-21 13:15:00,57.1,38.2,-100.00,SW,223,6.3,10.1,49,0.00,,,-99.99,167.0,HOBO +U30 +Weather +,2013-10-21 19:15:00,
2013-10-21 13:20:00,57.5,38.0,-100.00,SW,218,7.4,11.2,48,0.00,,,-99.99,214.0,HOBO +U30 +Weather +,2013-10-21 19:20:00,
2013-10-21 13:25:00,57.8,37.8,-100.00,SW,218,9.6,15.2,47,0.00,,,-99.99,229.0,HOBO +U30 +Weather +,2013-10-21 19:25:00,
2013-10-21 13:38:00,58.0,37.8,-100.00,SW,222,8.9,18.1,46,0.00,,,-99.99,261.0,HOBO +U30 +Weather +,2013-10-21 19:38:00,
2013-10-21 13:40:00,59.4,38.0,-100.00,SW,226,5.6,11.2,44,0.00,,,-99.99,256.0,HOBO +U30 +Weather +,2013-10-21 19:40:00,
2013-10-21 13:45:00,60.0,38.3,-100.00,SW,219,7.4,11.9,44,0.00,,,-99.99,654.0,HOBO +U30 +Weather +,2013-10-21 19:45:00,
2013-10-21 13:50:00,60.0,38.3,-100.00,SW,223,8.9,14.1,44,0.00,,,-99.99,602.0,HOBO +U30 +Weather +,2013-10-21 19:50:00,
2013-10-21 13:55:00,61.4,38.5,-100.00,WSW,247,5.1,10.1,42,0.00,,,-99.99,617.0,HOBO +U30 +Weather +,2013-10-21 19:55:00,
2013-10-21 14:00:00,61.1,38.4,-100.00,WSW,241,8.5,14.5,42,0.00,,,-99.99,628.0,HOBO +U30 +Weather +,2013-10-21 20:00:00,
2013-10-21 14:05:00,61.7,38.5,-100.00,WSW,251,8.5,13.4,42,0.00,,,-99.99,644.0,HOBO +U30 +Weather +,2013-10-21 20:05:00,
2013-10-21 14:10:00,62.1,38.9,-100.00,SW,225,8.5,13.4,42,0.00,,,-99.99,617.0,HOBO +U30 +Weather +,2013-10-21 20:10:00,
2013-10-21 14:15:00,61.8,38.6,-100.00,SW,218,9.6,14.5,42,0.00,,,-99.99,628.0,HOBO +U30 +Weather +,2013-10-21 20:15:00,
2013-10-21 14:20:00,61.3,38.3,-100.00,WSW,241,7.8,12.3,42,0.00,,,-99.99,131.0,HOBO +U30 +Weather +,2013-10-21 20:20:00,
2013-10-21 14:25:00,61.0,38.4,-100.00,WSW,243,8.5,12.3,43,0.00,,,-99.99,99.0,HOBO +U30 +Weather +,2013-10-21 20:25:00,
2013-10-21 14:35:00,60.9,38.4,-100.00,West,277,7.4,11.9,43,0.00,,,-99.99,88.0,HOBO +U30 +Weather +,2013-10-21 20:35:00,
2013-10-21 14:40:00,62.1,37.4,-100.00,West,279,4.5,8.9,39,0.00,,,-99.99,83.0,HOBO +U30 +Weather +,2013-10-21 20:40:00,
2013-10-21 14:45:00,62.7,35.3,-100.00,WNW,292,7.8,14.5,35,0.00,,,-99.99,84.0,HOBO +U30 +Weather +,2013-10-21 20:45:00,
2013-10-21 14:50:00,62.7,34.6,-100.00,WNW,296,11.2,19.2,35,0.00,,,-99.99,94.0,HOBO +U30 +Weather +,2013-10-21 20:50:00,
2013-10-21 14:55:00,62.5,35.2,-100.00,WNW,293,10.1,20.4,36,0.00,,,-99.99,71.0,HOBO +U30 +Weather +,2013-10-21 20:55:00,
2013-10-21 15:00:00,62.4,35.1,-100.00,WNW,295,7.4,15.9,36,0.00,,,-99.99,74.0,HOBO +U30 +Weather +,2013-10-21 21:00:00,
2013-10-21 15:05:00,62.4,35.2,-100.00,WNW,293,9.6,20.4,36,0.00,,,-99.99,83.0,HOBO +U30 +Weather +,2013-10-21 21:05:00,
2013-10-21 15:10:00,62.5,35.6,-100.00,NW,307,10.1,19.7,36,0.00,,,-99.99,79.0,HOBO +U30 +Weather +,2013-10-21 21:10:00,
2013-10-21 15:15:00,62.5,35.8,-100.00,WNW,298,10.1,18.6,36,0.00,,,-99.99,82.0,HOBO +U30 +Weather +,2013-10-21 21:15:00,
2013-10-21 15:20:00,62.5,35.5,-100.00,WNW,298,10.7,20.8,36,0.00,,,-99.99,82.0,HOBO +U30 +Weather +,2013-10-21 21:20:00,
2013-10-21 15:34:00,62.6,35.3,-100.00,WNW,299,13.0,21.9,36,0.00,,,-99.99,89.0,HOBO +U30 +Weather +,2013-10-21 21:34:00,
2013-10-21 15:35:00,62.6,35.4,-100.00,WNW,298,13.0,21.5,36,0.00,,,-99.99,56.0,HOBO +U30 +Weather +,2013-10-21 21:35:00,
2013-10-21 15:40:00,62.7,35.2,-100.00,NW,305,11.9,24.2,35,0.00,,,-99.99,57.0,HOBO +U30 +Weather +,2013-10-21 21:40:00,
2013-10-21 15:45:00,62.7,35.4,-100.00,WNW,303,13.0,23.7,36,0.00,,,-99.99,63.0,HOBO +U30 +Weather +,2013-10-21 21:45:00,
2013-10-21 15:50:00,62.6,35.8,-100.00,WNW,300,8.5,17.4,36,0.00,,,-99.99,63.0,HOBO +U30 +Weather +,2013-10-21 21:50:00,
2013-10-21 15:55:00,62.6,35.9,-100.00,NW,305,7.8,19.2,36,0.00,,,-99.99,84.0,HOBO +U30 +Weather +,2013-10-21 21:55:00,
2013-10-21 16:00:00,62.6,35.8,-100.00,WNW,300,8.9,18.6,36,0.00,,,-99.99,91.0,HOBO +U30 +Weather +,2013-10-21 22:00:00,
2013-10-21 16:05:00,62.5,36.0,-100.00,WNW,303,8.9,19.7,37,0.00,,,-99.99,84.0,HOBO +U30 +Weather +,2013-10-21 22:05:00,
2013-10-21 16:10:00,62.4,36.0,-100.00,WNW,300,9.6,16.3,37,0.00,,,-99.99,68.0,HOBO +U30 +Weather +,2013-10-21 22:10:00,
2013-10-21 16:15:00,62.4,36.2,-100.00,WNW,299,10.7,17.4,37,0.00,,,-99.99,82.0,HOBO +U30 +Weather +,2013-10-21 22:15:00,
2013-10-21 16:20:00,62.4,36.4,-100.00,WNW,302,8.9,16.3,37,0.00,,,-99.99,87.0,HOBO +U30 +Weather +,2013-10-21 22:20:00,
2013-10-21 16:32:00,62.3,36.6,-100.00,WNW,302,6.7,13.4,38,0.00,,,-99.99,77.0,HOBO +U30 +Weather +,2013-10-21 22:32:00,
2013-10-21 16:35:00,62.2,36.8,-100.00,WNW,293,8.5,15.9,38,0.00,,,-99.99,77.0,HOBO +U30 +Weather +,2013-10-21 22:35:00,
2013-10-21 16:40:00,62.3,36.7,-100.00,WNW,295,8.9,18.1,38,0.00,,,-99.99,106.0,HOBO +U30 +Weather +,2013-10-21 22:40:00,
2013-10-21 16:45:00,62.2,36.8,-100.00,WNW,292,8.5,14.5,38,0.00,,,-99.99,86.0,HOBO +U30 +Weather +,2013-10-21 22:45:00,
2013-10-21 16:50:00,62.2,37.1,-100.00,WNW,293,8.5,12.3,39,0.00,,,-99.99,63.0,HOBO +U30 +Weather +,2013-10-21 22:50:00,
2013-10-21 16:55:00,62.0,36.7,-100.00,WNW,296,8.5,18.1,38,0.00,,,-99.99,58.0,HOBO +U30 +Weather +,2013-10-21 22:55:00,
2013-10-21 17:00:00,61.9,36.7,-100.00,WNW,295,10.1,15.2,39,0.00,,,-99.99,52.0,HOBO +U30 +Weather +,2013-10-21 23:00:00,
2013-10-21 17:05:00,61.9,36.9,-100.00,WNW,295,8.5,15.2,39,0.00,,,-99.99,56.0,HOBO +U30 +Weather +,2013-10-21 23:05:00,
2013-10-21 17:10:00,61.8,36.8,-100.00,WNW,292,7.8,18.6,39,0.00,,,-99.99,59.0,HOBO +U30 +Weather +,2013-10-21 23:10:00,
2013-10-21 17:15:00,61.9,37.0,-100.00,WNW,292,8.5,15.2,39,0.00,,,-99.99,46.0,HOBO +U30 +Weather +,2013-10-21 23:15:00,
2013-10-21 17:20:00,61.9,37.0,-100.00,WNW,296,8.9,15.9,39,0.00,,,-99.99,37.0,HOBO +U30 +Weather +,2013-10-21 23:20:00,
2013-10-21 17:30:00,62.1,37.0,-100.00,WNW,302,8.5,15.9,39,0.00,,,-99.99,37.0,HOBO +U30 +Weather +,2013-10-21 23:30:00,
2013-10-21 17:32:00,62.0,37.0,-100.00,WNW,298,8.9,14.5,39,0.00,,,-99.99,38.0,HOBO +U30 +Weather +,2013-10-21 23:32:00,
2013-10-21 17:35:00,62.2,37.0,-100.00,NW,310,8.5,18.6,39,0.00,,,-99.99,89.0,HOBO +U30 +Weather +,2013-10-21 23:35:00,
2013-10-21 17:40:00,62.2,37.0,-100.00,NW,309,10.1,18.6,39,0.00,,,-99.99,29.0,HOBO +U30 +Weather +,2013-10-21 23:40:00,
2013-10-21 17:45:00,62.1,36.9,-100.00,NW,305,10.1,17.4,39,0.00,,,-99.99,24.0,HOBO +U30 +Weather +,2013-10-21 23:45:00,
2013-10-21 17:50:00,61.9,37.1,-100.00,NW,305,7.4,14.1,39,0.00,,,-99.99,21.0,HOBO +U30 +Weather +,2013-10-21 23:50:00,
2013-10-21 17:55:00,61.8,37.1,-100.00,WNW,293,7.4,13.0,39,0.00,,,-99.99,14.0,HOBO +U30 +Weather +,2013-10-21 23:55:00,
2013-10-21 18:00:00,61.6,37.2,-100.00,WNW,298,7.4,11.9,40,0.00,,,-99.99,13.0,HOBO +U30 +Weather +,2013-10-22 00:00:00,
2013-10-21 18:05:00,61.4,37.3,-100.00,WNW,296,6.3,10.7,40,0.00,,,-99.99,11.0,HOBO +U30 +Weather +,2013-10-22 00:05:00,
2013-10-21 18:10:00,61.2,37.3,-100.00,WNW,289,5.1,9.6,41,0.00,,,-99.99,8.0,HOBO +U30 +Weather +,2013-10-22 00:10:00,
2013-10-21 18:15:00,61.0,37.5,-100.00,WNW,293,4.5,10.7,41,0.00,,,-99.99,4.0,HOBO +U30 +Weather +,2013-10-22 00:15:00,
2013-10-21 18:20:00,60.8,37.3,-100.00,WNW,293,5.1,10.7,41,0.00,,,-99.99,2.0,HOBO +U30 +Weather +,2013-10-22 00:20:00,
2013-10-21 18:30:00,60.6,37.3,-100.00,WNW,292,5.6,10.7,41,0.00,,,-99.99,3.0,HOBO +U30 +Weather +,2013-10-22 00:30:00,
2013-10-21 18:35:00,60.1,37.1,-100.00,WNW,296,6.3,10.7,42,0.00,,,-99.99,1.0,HOBO +U30 +Weather +,2013-10-22 00:35:00,
2013-10-21 18:40:00,59.7,37.3,-100.00,WNW,296,5.1,9.6,43,0.00,,,-99.99,1.0,HOBO +U30 +Weather +,2013-10-22 00:40:00,
2013-10-21 18:45:00,59.6,37.3,-100.00,NW,307,6.3,10.7,43,0.00,,,-99.99,1.0,HOBO +U30 +Weather +,2013-10-22 00:45:00,
2013-10-21 18:50:00,59.4,37.3,-100.00,NW,314,6.3,11.2,43,0.00,,,-99.99,1.0,HOBO +U30 +Weather +,2013-10-22 00:50:00,
2013-10-21 18:55:00,59.2,37.2,-100.00,NW,313,6.7,11.9,43,0.00,,,-99.99,1.0,HOBO +U30 +Weather +,2013-10-22 00:55:00,
2013-10-21 19:00:00,59.1,37.3,-100.00,NW,312,7.4,12.3,44,0.00,,,-99.99,1.0,HOBO +U30 +Weather +,2013-10-22 01:00:00,
2013-10-21 19:05:00,59.2,37.1,-100.00,NW,312,6.3,11.2,43,0.00,,,-99.99,1.0,HOBO +U30 +Weather +,2013-10-22 01:05:00,
2013-10-21 19:10:00,59.2,37.1,-100.00,NW,312,6.7,11.9,43,0.00,,,-99.99,1.0,HOBO +U30 +Weather +,2013-10-22 01:10:00,
2013-10-21 19:15:00,59.2,37.0,-100.00,NW,316,7.8,13.4,43,0.00,,,-99.99,1.0,HOBO +U30 +Weather +,2013-10-22 01:15:00,
2013-10-21 19:27:00,58.9,37.1,-100.00,NW,317,6.7,11.9,44,0.00,,,-99.99,1.0,HOBO +U30 +Weather +,2013-10-22 01:27:00,
2013-10-21 19:30:00,58.3,37.0,-100.00,NW,310,6.7,10.7,44,0.00,,,-99.99,1.0,HOBO +U30 +Weather +,2013-10-22 01:30:00,
2013-10-21 19:35:00,58.0,37.1,-100.00,NW,309,7.4,14.5,45,0.00,,,-99.99,1.0,HOBO +U30 +Weather +,2013-10-22 01:35:00,
2013-10-21 19:40:00,57.8,37.1,-100.00,NW,307,5.6,10.7,45,0.00,,,-99.99,1.0,HOBO +U30 +Weather +,2013-10-22 01:40:00,
2013-10-21 19:45:00,57.8,37.0,-100.00,NW,310,6.3,10.7,45,0.00,,,-99.99,1.0,HOBO +U30 +Weather +,2013-10-22 01:45:00,
2013-10-21 19:50:00,57.7,37.0,-100.00,NW,305,5.6,10.1,45,0.00,,,-99.99,1.0,HOBO +U30 +Weather +,2013-10-22 01:50:00,
2013-10-21 19:55:00,57.4,37.0,-100.00,NW,307,6.3,13.0,46,0.00,,,-99.99,1.0,HOBO +U30 +Weather +,2013-10-22 01:55:00,
2013-10-21 20:00:00,57.3,36.9,-100.00,WNW,303,6.7,13.0,46,0.00,,,-99.99,1.0,HOBO +U30 +Weather +,2013-10-22 02:00:00,
2013-10-21 20:05:00,57.1,36.8,-100.00,WNW,300,7.4,11.2,46,0.00,,,-99.99,1.0,HOBO +U30 +Weather +,2013-10-22 02:05:00,
2013-10-21 20:10:00,56.9,36.9,-100.00,WNW,298,6.3,11.2,47,0.00,,,-99.99,1.0,HOBO +U30 +Weather +,2013-10-22 02:10:00,
2013-10-21 20:15:00,56.6,36.8,-100.00,WNW,296,6.3,11.2,47,0.00,,,-99.99,1.0,HOBO +U30 +Weather +,2013-10-22 02:15:00,
2013-10-21 20:25:00,56.5,36.8,-100.00,WNW,302,5.6,11.9,47,0.00,,,-99.99,1.0,HOBO +U30 +Weather +,2013-10-22 02:25:00,
2013-10-21 20:26:00,56.6,36.8,-100.00,WNW,293,6.3,10.1,47,0.00,,,-99.99,1.0,HOBO +U30 +Weather +,2013-10-22 02:26:00,
2013-10-21 20:30:00,56.7,36.9,-100.00,WNW,299,6.7,12.3,47,0.00,,,-99.99,1.0,HOBO +U30 +Weather +,2013-10-22 02:30:00,
2013-10-21 20:35:00,56.7,36.9,-100.00,WNW,298,6.7,12.3,47,0.00,,,-99.99,1.0,HOBO +U30 +Weather +,2013-10-22 02:35:00,
2013-10-21 20:40:00,56.7,36.9,-100.00,WNW,295,6.7,11.9,47,0.00,,,-99.99,1.0,HOBO +U30 +Weather +,2013-10-22 02:40:00,
2013-10-21 20:45:00,56.9,37.0,-100.00,WNW,299,6.3,13.0,47,0.00,,,-99.99,1.0,HOBO +U30 +Weather +,2013-10-22 02:45:00,
2013-10-21 20:50:00,57.2,37.0,-100.00,WNW,303,6.7,14.1,46,0.00,,,-99.99,1.0,HOBO +U30 +Weather +,2013-10-22 02:50:00,
2013-10-21 20:55:00,57.2,36.9,-100.00,WNW,299,6.3,12.3,46,0.00,,,-99.99,1.0,HOBO +U30 +Weather +,2013-10-22 02:55:00,
2013-10-21 21:00:00,57.2,36.9,-100.00,WNW,289,4.5,8.5,46,0.00,,,-99.99,1.0,HOBO +U30 +Weather +,2013-10-22 03:00:00,
2013-10-21 21:05:00,56.9,36.9,-100.00,West,270,4.0,8.9,47,0.00,,,-99.99,1.0,HOBO +U30 +Weather +,2013-10-22 03:05:00,
2013-10-21 21:10:00,56.3,37.0,-100.00,WNW,288,4.0,10.1,48,0.00,,,-99.99,1.0,HOBO +U30 +Weather +,2013-10-22 03:10:00,
2013-10-21 21:15:00,56.2,37.1,-100.00,WNW,298,6.3,11.9,48,0.00,,,-99.99,1.0,HOBO +U30 +Weather +,2013-10-22 03:15:00,
2013-10-21 21:25:00,56.2,37.3,-100.00,WNW,295,6.3,13.0,48,0.00,,,-99.99,1.0,HOBO +U30 +Weather +,2013-10-22 03:25:00,
2013-10-21 21:30:00,56.0,37.3,-100.00,WNW,300,6.3,11.9,49,0.00,,,-99.99,1.0,HOBO +U30 +Weather +,2013-10-22 03:30:00,
2013-10-21 21:35:00,55.5,37.3,-100.00,WNW,299,3.4,7.4,50,0.00,,,-99.99,1.0,HOBO +U30 +Weather +,2013-10-22 03:35:00,
2013-10-21 21:40:00,54.9,37.3,-100.00,WNW,303,2.9,7.8,51,0.00,,,-99.99,1.0,HOBO +U30 +Weather +,2013-10-22 03:40:00,
2013-10-21 21:45:00,54.6,37.3,-100.00,NW,305,2.9,7.8,51,0.00,,,-99.99,1.0,HOBO +U30 +Weather +,2013-10-22 03:45:00,
2013-10-21 21:50:00,54.6,37.3,-100.00,WNW,284,2.9,6.3,51,0.00,,,-99.99,1.0,HOBO +U30 +Weather +,2013-10-22 03:50:00,
2013-10-21 21:55:00,54.4,37.3,-100.00,WSW,253,2.2,5.6,52,0.00,,,-99.99,1.0,HOBO +U30 +Weather +,2013-10-22 03:55:00,
2013-10-21 22:00:00,53.0,37.4,-100.00,SSW,201,3.4,6.3,55,0.00,,,-99.99,1.0,HOBO +U30 +Weather +,2013-10-22 04:00:00,
2013-10-21 22:05:00,52.1,37.4,-100.00,South,190,4.0,6.3,57,0.00,,,-99.99,1.0,HOBO +U30 +Weather +,2013-10-22 04:05:00,
2013-10-21 22:10:00,51.3,37.2,-100.00,South,185,1.8,4.0,58,0.00,,,-99.99,1.0,HOBO +U30 +Weather +,2013-10-22 04:10:00,
2013-10-21 22:24:00,51.1,37.1,-100.00,South,185,0.0,1.8,58,0.00,,,-99.99,1.0,HOBO +U30 +Weather +,2013-10-22 04:24:00,
2013-10-21 22:25:00,51.5,37.6,-100.00,South,185,0.0,0.0,58,0.00,,,-99.99,1.0,HOBO +U30 +Weather +,2013-10-22 04:25:00,
2013-10-21 22:30:00,51.3,37.5,-100.00,South,188,1.8,4.0,59,0.00,,,-99.99,1.0,HOBO +U30 +Weather +,2013-10-22 04:30:00,
2013-10-21 22:35:00,50.9,37.5,-100.00,SSW,199,2.9,4.5,60,0.00,,,-99.99,1.0,HOBO +U30 +Weather +,2013-10-22 04:35:00,
2013-10-21 22:40:00,50.8,37.5,-100.00,SSW,195,2.9,5.1,60,0.00,,,-99.99,1.0,HOBO +U30 +Weather +,2013-10-22 04:40:00,
2013-10-21 22:45:00,51.2,37.6,-100.00,SSW,209,4.0,6.7,59,0.00,,,-99.99,1.0,HOBO +U30 +Weather +,2013-10-22 04:45:00,
2013-10-21 22:50:00,50.6,37.5,-100.00,SW,220,1.8,4.5,60,0.00,,,-99.99,1.0,HOBO +U30 +Weather +,2013-10-22 04:50:00,
2013-10-21 22:55:00,50.2,37.4,-100.00,South,188,1.1,6.3,61,0.00,,,-99.99,1.0,HOBO +U30 +Weather +,2013-10-22 04:55:00,
2013-10-21 23:00:00,49.7,37.3,-100.00,SSW,211,0.0,1.8,62,0.00,,,-99.99,1.0,HOBO +U30 +Weather +,2013-10-22 05:00:00,
2013-10-21 23:05:00,49.4,37.3,-100.00,SSW,213,0.7,4.0,62,0.00,,,-99.99,1.0,HOBO +U30 +Weather +,2013-10-22 05:05:00,
2013-10-21 23:10:00,49.2,37.7,-100.00,South,191,6.3,10.1,64,0.00,,,-99.99,1.0,HOBO +U30 +Weather +,2013-10-22 05:10:00,
2013-10-21 23:15:00,49.4,37.8,-100.00,SSW,208,5.6,11.2,64,0.00,,,-99.99,1.0,HOBO +U30 +Weather +,2013-10-22 05:15:00,
2013-10-21 23:20:00,48.9,38.0,-100.00,SW,215,3.4,6.7,65,0.00,,,-99.99,1.0,HOBO +U30 +Weather +,2013-10-22 05:20:00,
2013-10-21 23:25:00,48.1,38.1,-100.00,SSW,211,5.1,7.8,68,0.00,,,-99.99,1.0,HOBO +U30 +Weather +,2013-10-22 05:25:00,
2013-10-21 23:30:00,47.8,38.1,-100.00,SSW,197,2.2,5.6,69,0.00,,,-99.99,1.0,HOBO +U30 +Weather +,2013-10-22 05:30:00,
2013-10-21 23:35:00,47.5,38.3,-100.00,SW,216,3.4,5.6,70,0.00,,,-99.99,1.0,HOBO +U30 +Weather +,2013-10-22 05:35:00,
2013-10-21 23:40:00,47.3,38.2,-100.00,WSW,246,0.7,4.0,70,0.00,,,-99.99,1.0,HOBO +U30 +Weather +,2013-10-22 05:40:00,
2013-10-21 23:45:00,47.5,38.4,-100.00,WSW,254,1.1,2.9,70,0.00,,,-99.99,1.0,HOBO +U30 +Weather +,2013-10-22 05:45:00,
2013-10-21 23:50:00,47.4,38.5,-100.00,SW,216,2.9,5.1,71,0.00,,,-99.99,1.0,HOBO +U30 +Weather +,2013-10-22 05:50:00,
2013-10-21 23:55:00,47.0,38.5,-100.00,SSW,205,5.6,8.5,72,0.00,,,-99.99,1.0,HOBO +U30 +Weather +,2013-10-22 05:55:00,